createdAt,value
2023-08-02T00:01:42.766Z,18.65
2023-08-02T00:04:27.902Z,18.61
2023-08-02T00:07:12.996Z,18.59
2023-08-02T00:09:58.231Z,18.57
2023-08-02T00:12:43.401Z,18.53
2023-08-02T00:15:28.449Z,18.54
2023-08-02T00:18:13.369Z,18.55
2023-08-02T00:20:58.686Z,18.56
2023-08-02T00:23:43.795Z,18.55
2023-08-02T00:26:28.895Z,18.48
2023-08-02T00:29:14.087Z,18.41
2023-08-02T00:31:59.210Z,18.22
2023-08-02T00:34:44.306Z,18.13
2023-08-02T00:37:29.323Z,18.03
2023-08-02T00:40:14.573Z,17.99
2023-08-02T00:42:59.648Z,17.97
2023-08-02T00:45:44.820Z,17.91
2023-08-02T00:48:29.930Z,17.89
2023-08-02T00:51:15.042Z,17.87
2023-08-02T00:54:00.272Z,17.90
2023-08-02T00:56:45.213Z,17.88
2023-08-02T00:59:30.283Z,17.93
2023-08-02T01:02:15.228Z,18.00
2023-08-02T01:05:00.402Z,18.03
2023-08-02T01:07:45.691Z,18.10
2023-08-02T01:10:30.767Z,18.11
2023-08-02T01:13:15.877Z,18.13
2023-08-02T01:16:00.893Z,18.16
2023-08-02T01:18:45.940Z,18.25
2023-08-02T01:21:30.960Z,18.23
2023-08-02T01:24:16.179Z,18.17
2023-08-02T01:27:01.311Z,18.11
2023-08-02T01:29:46.371Z,18.08
2023-08-02T01:32:31.520Z,18.06
2023-08-02T01:35:16.546Z,18.04
2023-08-02T01:38:01.862Z,18.04
2023-08-02T01:40:46.836Z,18.09
2023-08-02T01:43:31.897Z,18.15
2023-08-02T01:46:17.025Z,18.16
2023-08-02T01:49:02.135Z,18.15
2023-08-02T01:51:47.287Z,18.15
2023-08-02T01:54:32.334Z,18.16
2023-08-02T01:57:17.627Z,18.16
2023-08-02T02:00:02.495Z,18.19
2023-08-02T02:02:48.903Z,18.20
2023-08-02T02:05:34.099Z,18.23
2023-08-02T02:08:19.123Z,18.25
2023-08-02T02:11:04.204Z,18.25
2023-08-02T02:13:49.182Z,18.23
2023-08-02T02:16:34.354Z,18.20
2023-08-02T02:19:19.323Z,18.26
2023-08-02T02:22:04.533Z,18.23
2023-08-02T02:24:49.472Z,18.22
2023-08-02T02:27:34.516Z,18.17
2023-08-02T02:30:19.697Z,18.21
2023-08-02T02:33:04.726Z,18.21
2023-08-02T02:35:49.898Z,18.21
2023-08-02T02:38:34.930Z,18.19
2023-08-02T02:41:20.031Z,18.17
2023-08-02T02:44:05.098Z,18.21
2023-08-02T02:46:50.146Z,18.18
2023-08-02T02:49:35.231Z,18.22
2023-08-02T02:52:20.262Z,18.16
2023-08-02T02:55:05.414Z,18.13
2023-08-02T02:57:50.478Z,18.09
2023-08-02T03:00:35.616Z,18.07
2023-08-02T03:03:20.665Z,18.00
2023-08-02T03:06:05.860Z,17.95
2023-08-02T03:08:50.678Z,17.93
2023-08-02T03:11:35.704Z,17.99
2023-08-02T03:14:21.012Z,17.98
2023-08-02T03:17:06.056Z,18.03
2023-08-02T03:19:51.286Z,18.04
2023-08-02T03:22:36.514Z,18.04
2023-08-02T03:25:21.481Z,18.00
2023-08-02T03:28:06.414Z,18.00
2023-08-02T03:30:51.558Z,18.06
2023-08-02T03:33:36.643Z,18.10
2023-08-02T03:36:21.651Z,18.12
2023-08-02T03:39:06.814Z,18.12
2023-08-02T03:41:51.774Z,18.09
2023-08-02T03:44:36.930Z,18.07
2023-08-02T03:47:21.971Z,18.06
2023-08-02T03:50:07.214Z,18.04
2023-08-02T03:52:52.310Z,18.05
2023-08-02T03:55:37.383Z,18.08
2023-08-02T03:58:22.511Z,18.00
2023-08-02T04:01:07.514Z,17.92
2023-08-02T04:03:52.748Z,17.90
2023-08-02T04:06:37.828Z,17.92
2023-08-02T04:09:22.956Z,17.94
2023-08-02T04:12:08.058Z,17.91
2023-08-02T04:14:53.188Z,17.90
2023-08-02T04:20:23.366Z,17.93
2023-08-02T04:23:08.544Z,17.97
2023-08-02T04:25:53.634Z,18.01
2023-08-02T04:28:38.870Z,18.05
2023-08-02T04:31:24.109Z,18.09
2023-08-02T04:34:09.002Z,18.08
2023-08-02T04:36:54.060Z,18.11
2023-08-02T04:39:39.093Z,18.20
2023-08-02T04:42:24.335Z,18.21
2023-08-02T04:45:09.349Z,18.27
2023-08-02T04:47:54.519Z,18.29
2023-08-02T04:50:39.433Z,18.32
2023-08-02T04:53:24.454Z,18.31
2023-08-02T04:56:09.704Z,18.33
2023-08-02T04:58:54.689Z,18.36
2023-08-02T05:01:40.305Z,18.35
2023-08-02T05:04:25.511Z,18.33
2023-08-02T05:07:10.700Z,18.30
2023-08-02T05:09:55.796Z,18.31
2023-08-02T05:12:41.059Z,18.37
2023-08-02T05:15:26.273Z,18.43
2023-08-02T05:18:11.212Z,18.53
2023-08-02T05:20:56.334Z,18.62
2023-08-02T05:23:41.294Z,18.70
2023-08-02T05:26:26.506Z,18.75
2023-08-02T05:29:11.277Z,18.71
2023-08-02T05:31:56.476Z,18.71
2023-08-02T05:34:41.545Z,18.76
2023-08-02T05:37:26.630Z,18.81
2023-08-02T05:40:11.712Z,18.82
2023-08-02T05:42:56.671Z,18.83
2023-08-02T05:45:41.863Z,18.89
2023-08-02T05:48:26.883Z,18.97
2023-08-02T05:51:12.165Z,19.05
2023-08-02T05:53:57.300Z,19.04
2023-08-02T05:56:42.395Z,19.08
2023-08-02T05:59:27.571Z,19.11
2023-08-02T06:02:12.637Z,19.21
2023-08-02T06:04:57.938Z,19.30
2023-08-02T06:07:42.914Z,19.38
2023-08-02T06:10:28.267Z,19.48
2023-08-02T06:13:13.377Z,19.61
2023-08-02T06:15:58.600Z,19.74
2023-08-02T06:18:43.801Z,19.94
2023-08-02T06:21:28.810Z,20.07
2023-08-02T06:24:13.949Z,20.23
2023-08-02T06:26:59.018Z,20.27
2023-08-02T06:29:44.144Z,20.16
2023-08-02T06:32:29.143Z,19.91
2023-08-02T06:35:14.193Z,20.25
2023-08-02T06:37:59.301Z,21.26
2023-08-02T06:40:44.400Z,23.33
2023-08-02T06:43:29.586Z,25.70
2023-08-02T06:46:14.551Z,24.51
2023-08-02T06:48:59.816Z,23.86
2023-08-02T06:51:45.151Z,23.72
2023-08-02T06:54:30.629Z,26.12
2023-08-02T06:57:15.835Z,26.06
2023-08-02T07:00:00.737Z,25.61
2023-08-02T07:02:46.047Z,25.30
2023-08-02T07:05:31.186Z,25.05
2023-08-02T07:08:16.369Z,24.95
2023-08-02T07:11:01.362Z,24.86
2023-08-02T07:13:46.508Z,24.52
2023-08-02T07:16:31.712Z,24.35
2023-08-02T07:19:16.716Z,24.23
2023-08-02T07:22:02.007Z,24.09
2023-08-02T07:24:46.994Z,23.95
2023-08-02T07:27:32.159Z,24.02
2023-08-02T07:30:17.281Z,24.37
2023-08-02T07:33:02.375Z,23.79
2023-08-02T07:35:47.524Z,22.99
2023-08-02T07:38:32.611Z,22.73
2023-08-02T07:41:18.693Z,22.42
2023-08-02T07:44:05.801Z,22.97
2023-08-02T07:46:51.047Z,22.82
2023-08-02T07:49:36.007Z,22.79
2023-08-02T07:52:21.082Z,22.93
2023-08-02T07:55:06.552Z,22.84
2023-08-02T07:57:51.630Z,23.06
2023-08-02T08:00:36.786Z,23.48
2023-08-02T08:03:21.724Z,23.80
2023-08-02T08:06:06.935Z,24.33
2023-08-02T08:08:51.995Z,24.56
2023-08-02T08:11:36.983Z,24.71
2023-08-02T08:14:22.245Z,24.53
2023-08-02T08:17:07.398Z,24.56
2023-08-02T08:19:52.640Z,24.50
2023-08-02T08:22:37.548Z,24.02
2023-08-02T08:25:22.609Z,23.47
2023-08-02T08:28:07.643Z,23.09
2023-08-02T08:30:52.679Z,23.10
2023-08-02T08:33:37.937Z,23.20
2023-08-02T08:36:22.912Z,22.85
2023-08-02T08:39:08.165Z,22.82
2023-08-02T08:41:53.169Z,22.80
2023-08-02T08:44:38.268Z,22.92
2023-08-02T08:47:23.349Z,22.98
2023-08-02T08:50:08.310Z,23.26
2023-08-02T08:52:53.546Z,23.50
2023-08-02T08:55:38.570Z,23.50
2023-08-02T08:58:23.818Z,23.60
2023-08-02T09:01:08.965Z,23.63
2023-08-02T09:03:54.155Z,23.70
2023-08-02T09:06:39.265Z,23.93
2023-08-02T09:09:24.272Z,23.89
2023-08-02T09:12:09.329Z,23.70
2023-08-02T09:14:54.287Z,23.71
2023-08-02T09:17:39.545Z,23.90
2023-08-02T09:20:24.509Z,24.24
2023-08-02T09:23:09.596Z,24.43
2023-08-02T09:25:54.612Z,24.45
2023-08-02T09:28:39.639Z,24.65
2023-08-02T09:31:24.842Z,24.80
2023-08-02T09:34:09.830Z,24.88
2023-08-02T09:36:54.992Z,24.89
2023-08-02T09:39:40.119Z,24.97
2023-08-02T09:42:25.182Z,24.68
2023-08-02T09:45:10.190Z,24.40
2023-08-02T09:47:55.428Z,24.55
2023-08-02T09:50:40.524Z,24.70
2023-08-02T09:53:25.670Z,24.63
2023-08-02T09:56:10.789Z,24.80
2023-08-02T09:58:55.856Z,25.24
2023-08-02T10:01:41.362Z,25.30
2023-08-02T10:04:26.783Z,25.60
2023-08-02T10:07:11.923Z,25.63
2023-08-02T10:09:57.035Z,25.82
2023-08-02T10:12:42.029Z,26.09
2023-08-02T10:15:27.345Z,26.49
2023-08-02T10:18:12.315Z,26.35
2023-08-02T10:20:57.599Z,26.56
2023-08-02T10:23:42.534Z,26.90
2023-08-02T10:26:27.665Z,27.33
2023-08-02T10:29:12.764Z,27.52
2023-08-02T10:31:57.784Z,27.43
2023-08-02T10:34:42.874Z,27.73
2023-08-02T10:37:27.927Z,27.86
2023-08-02T10:40:13.022Z,27.44
2023-08-02T10:42:58.029Z,27.52
2023-08-02T10:45:43.168Z,27.46
2023-08-02T10:48:28.163Z,26.89
2023-08-02T10:51:13.290Z,26.82
2023-08-02T10:53:58.470Z,26.52
2023-08-02T10:56:43.716Z,26.21
2023-08-02T10:59:29.163Z,26.19
2023-08-02T11:02:14.352Z,26.29
2023-08-02T11:04:59.327Z,25.84
2023-08-02T11:07:45.538Z,25.91
2023-08-02T11:10:30.623Z,26.04
2023-08-02T11:13:15.851Z,26.32
2023-08-02T11:16:00.885Z,26.60
2023-08-02T11:18:46.051Z,26.35
2023-08-02T11:21:31.196Z,26.53
2023-08-02T11:24:16.380Z,26.50
2023-08-02T11:27:01.825Z,26.71
2023-08-02T11:29:46.918Z,26.77
2023-08-02T11:32:32.050Z,26.92
2023-08-02T11:35:16.936Z,26.89
2023-08-02T11:38:02.115Z,27.22
2023-08-02T11:40:47.181Z,26.97
2023-08-02T11:43:32.344Z,27.06
2023-08-02T11:46:17.387Z,26.92
2023-08-02T11:49:02.526Z,27.00
2023-08-02T12:32:12.389Z,27.02
2023-08-02T12:35:11.191Z,27.41
2023-08-02T12:37:57.924Z,27.82
2023-08-02T12:40:44.432Z,28.11
2023-08-02T12:43:29.645Z,28.25
2023-08-02T12:46:14.907Z,28.36
2023-08-02T12:48:59.914Z,28.30
2023-08-02T12:51:45.136Z,28.43
2023-08-02T12:54:30.196Z,28.47
2023-08-02T12:57:15.345Z,28.65
2023-08-02T13:00:00.599Z,28.80
2023-08-02T13:02:45.945Z,28.67
2023-08-02T13:05:30.946Z,28.55
2023-08-02T13:08:16.065Z,28.55
2023-08-02T13:11:01.098Z,28.57
2023-08-02T13:13:46.062Z,28.58
2023-08-02T13:16:31.134Z,28.83
2023-08-02T13:19:16.138Z,29.07
2023-08-02T13:22:01.191Z,29.20
2023-08-02T13:24:46.286Z,29.28
2023-08-02T13:27:31.256Z,29.35
2023-08-02T13:30:16.423Z,29.41
2023-08-02T13:33:01.400Z,29.52
2023-08-02T13:35:46.441Z,29.60
2023-08-02T13:38:31.282Z,29.52
2023-08-02T13:41:16.380Z,29.61
2023-08-02T13:44:01.522Z,29.74
2023-08-02T13:46:46.551Z,29.83
2023-08-02T13:49:31.578Z,29.82
2023-08-02T13:52:16.553Z,29.86
2023-08-02T13:55:01.625Z,29.87
2023-08-02T13:57:46.577Z,29.75
2023-08-02T14:00:31.512Z,29.76
2023-08-02T14:03:16.453Z,29.82
2023-08-02T14:06:01.658Z,29.41
2023-08-02T14:08:46.520Z,29.55
2023-08-02T14:11:31.498Z,29.54
2023-08-02T14:14:16.714Z,29.57
2023-08-02T14:17:01.643Z,29.23
2023-08-02T14:19:46.647Z,29.09
2023-08-02T14:22:31.652Z,29.18
2023-08-02T14:25:16.749Z,29.34
2023-08-02T14:28:01.757Z,29.34
2023-08-02T14:30:46.858Z,29.25
2023-08-02T14:33:32.005Z,29.34
2023-08-02T14:36:16.980Z,29.46
2023-08-02T14:39:02.155Z,29.41
2023-08-02T14:41:47.134Z,29.30
2023-08-02T14:44:32.321Z,29.15
2023-08-02T14:47:17.417Z,29.08
2023-08-02T14:50:02.488Z,29.05
2023-08-02T14:52:47.672Z,29.05
2023-08-02T14:55:32.732Z,29.04
2023-08-02T14:58:17.939Z,28.89
2023-08-02T15:01:02.895Z,28.82
2023-08-02T15:03:49.276Z,28.73
2023-08-02T15:06:36.030Z,28.91
2023-08-02T15:09:21.152Z,29.02
2023-08-02T15:12:06.330Z,29.14
2023-08-02T15:14:51.267Z,29.25
2023-08-02T15:17:36.406Z,29.18
2023-08-02T15:20:21.466Z,29.24
2023-08-02T15:23:06.612Z,29.23
2023-08-02T15:25:51.822Z,29.05
2023-08-02T15:28:36.777Z,28.96
2023-08-02T15:31:21.923Z,28.94
2023-08-02T15:34:08.280Z,28.47
2023-08-02T15:36:54.539Z,28.43
2023-08-02T15:39:39.577Z,28.23
2023-08-02T15:42:24.612Z,28.10
2023-08-02T15:45:09.716Z,28.12
2023-08-02T15:47:54.787Z,27.84
2023-08-02T15:50:39.884Z,27.83
2023-08-02T15:53:24.952Z,28.16
2023-08-02T15:56:10.268Z,28.38
2023-08-02T15:58:55.318Z,28.49
2023-08-02T16:01:40.352Z,28.65
2023-08-02T16:04:25.335Z,28.57
2023-08-02T16:07:10.365Z,28.55
2023-08-02T16:09:55.376Z,28.61
2023-08-02T16:12:40.335Z,28.50
2023-08-02T16:15:25.522Z,28.56
2023-08-02T16:18:10.274Z,28.62
2023-08-02T16:20:55.385Z,28.69
2023-08-02T16:23:40.397Z,28.55
2023-08-02T16:26:25.449Z,28.56
2023-08-02T16:29:10.568Z,28.48
2023-08-02T16:31:55.528Z,28.35
2023-08-02T16:34:40.713Z,28.32
2023-08-02T16:37:25.754Z,28.20
2023-08-02T16:40:10.914Z,28.18
2023-08-02T16:42:56.072Z,28.29
2023-08-02T16:45:41.115Z,28.42
2023-08-02T16:48:26.215Z,28.52
2023-08-02T16:51:11.199Z,28.56
2023-08-02T16:53:56.309Z,28.52
2023-08-02T16:56:41.322Z,28.46
2023-08-02T16:59:26.449Z,28.42
2023-08-02T17:02:11.447Z,28.39
2023-08-02T17:04:56.424Z,28.37
2023-08-02T17:07:41.463Z,28.32
2023-08-02T17:10:26.511Z,28.16
2023-08-02T17:13:11.647Z,28.08
2023-08-02T17:15:56.721Z,28.00
2023-08-02T17:18:41.751Z,27.93
2023-08-02T17:21:26.750Z,27.82
2023-08-02T17:24:11.918Z,27.83
2023-08-02T17:26:56.954Z,27.75
2023-08-02T17:29:41.953Z,27.58
2023-08-02T17:32:27.250Z,27.46
2023-08-02T17:35:12.269Z,27.36
2023-08-02T17:37:57.420Z,27.20
2023-08-02T17:40:42.391Z,26.98
2023-08-02T17:43:27.484Z,26.81
2023-08-02T17:46:12.489Z,26.50
2023-08-02T17:48:57.451Z,26.06
2023-08-02T17:51:42.679Z,25.93
2023-08-02T17:54:27.586Z,25.71
2023-08-02T17:57:12.795Z,25.35
2023-08-02T17:59:58.642Z,25.36
2023-08-02T18:02:43.678Z,25.42
2023-08-02T18:05:28.749Z,25.40
2023-08-02T18:08:13.653Z,25.11
2023-08-02T18:10:58.760Z,24.89
2023-08-02T18:13:43.608Z,24.71
2023-08-02T18:16:28.949Z,24.78
2023-08-02T18:19:13.977Z,24.83
2023-08-02T18:21:59.129Z,24.86
2023-08-02T18:24:45.454Z,24.87
2023-08-02T18:27:30.680Z,24.71
2023-08-02T18:30:15.738Z,24.59
2023-08-02T18:33:00.842Z,24.61
2023-08-02T18:35:46.003Z,24.60
2023-08-02T18:38:31.061Z,24.64
2023-08-02T18:41:16.323Z,24.63
2023-08-02T18:44:01.365Z,24.56
2023-08-02T18:46:46.457Z,24.53
2023-08-02T18:49:31.519Z,24.53
2023-08-02T18:52:16.634Z,24.50
2023-08-02T18:55:01.800Z,24.46
2023-08-02T18:57:46.796Z,24.48
2023-08-02T19:00:31.956Z,24.46
2023-08-02T19:03:16.893Z,24.46
2023-08-02T19:06:02.028Z,24.35
2023-08-02T19:08:47.218Z,24.18
2023-08-02T19:11:32.295Z,24.09
2023-08-02T19:14:17.498Z,23.92
2023-08-02T19:17:02.583Z,23.86
2023-08-02T19:19:47.821Z,23.87
2023-08-02T19:22:32.863Z,23.89
2023-08-02T19:25:18.039Z,23.95
2023-08-02T19:28:03.011Z,24.01
2023-08-02T19:30:48.029Z,24.06
2023-08-02T19:33:33.136Z,24.09
2023-08-02T19:36:18.198Z,24.10
2023-08-02T19:39:03.343Z,24.11
2023-08-02T19:41:48.342Z,24.13
2023-08-02T19:44:33.484Z,24.09
2023-08-02T19:47:18.609Z,23.99
2023-08-02T19:50:03.647Z,23.91
2023-08-02T19:52:48.912Z,23.85
2023-08-02T19:55:34.146Z,23.73
2023-08-02T19:58:19.341Z,23.65
2023-08-02T20:01:04.208Z,23.57
2023-08-02T20:03:49.420Z,23.52
2023-08-02T20:06:34.541Z,23.47
2023-08-02T20:09:19.589Z,23.39
2023-08-02T20:12:04.822Z,23.34
2023-08-02T20:14:49.797Z,23.26
2023-08-02T20:17:35.186Z,23.13
2023-08-02T20:20:19.956Z,23.06
2023-08-02T20:23:05.255Z,22.86
2023-08-02T20:25:50.117Z,22.76
2023-08-02T20:28:35.357Z,22.67
2023-08-02T20:31:20.557Z,22.59
2023-08-02T20:34:05.475Z,22.52
2023-08-02T20:36:50.498Z,22.51
2023-08-02T20:39:35.507Z,22.38
2023-08-02T20:42:20.670Z,22.27
2023-08-02T20:45:05.615Z,22.32
2023-08-02T20:47:50.834Z,22.36
2023-08-02T20:50:35.755Z,22.27
2023-08-02T20:53:20.844Z,22.30
2023-08-02T20:56:05.893Z,22.32
2023-08-02T20:58:50.929Z,22.28
2023-08-02T21:01:36.260Z,22.24
2023-08-02T21:04:21.359Z,22.15
2023-08-02T21:07:11.944Z,22.12
2023-08-02T21:09:57.118Z,22.04
2023-08-02T21:12:42.223Z,21.80
2023-08-02T21:15:27.253Z,21.61
2023-08-02T21:18:12.297Z,21.47
2023-08-02T21:20:57.326Z,21.46
2023-08-02T21:23:42.643Z,21.49
2023-08-02T21:26:27.395Z,21.44
2023-08-02T21:29:12.650Z,21.41
2023-08-02T21:31:58.180Z,21.28
2023-08-02T21:34:43.514Z,21.30
2023-08-02T21:37:28.599Z,21.25
2023-08-02T21:40:13.637Z,21.20
2023-08-02T21:42:58.896Z,21.09
2023-08-02T21:45:43.887Z,20.66
2023-08-02T21:48:29.169Z,20.54
2023-08-02T21:51:14.229Z,20.48
2023-08-02T21:53:59.447Z,20.42
2023-08-02T21:56:44.599Z,20.36
2023-08-02T21:59:29.660Z,20.29
2023-08-02T22:02:14.923Z,20.23
2023-08-02T22:04:59.842Z,20.16
2023-08-02T22:07:45.067Z,19.95
2023-08-02T22:10:30.092Z,19.85
2023-08-02T22:13:15.254Z,19.68
2023-08-02T22:16:00.403Z,19.58
2023-08-02T22:18:45.556Z,19.54
2023-08-02T22:21:30.593Z,19.48
2023-08-02T22:24:15.486Z,19.40
2023-08-02T22:27:00.443Z,19.27
2023-08-02T22:29:58.489Z,19.23
2023-08-02T22:32:44.237Z,19.22
2023-08-02T22:35:29.193Z,18.91
2023-08-02T22:38:15.442Z,18.88
2023-08-02T22:41:00.513Z,18.78
2023-08-02T22:43:45.690Z,18.72
2023-08-02T22:46:30.951Z,18.65
2023-08-02T22:50:27.337Z,18.42
2023-08-02T22:52:20.342Z,18.48
2023-08-02T22:55:05.471Z,18.48
2023-08-02T22:57:50.513Z,18.45
2023-08-02T23:00:35.717Z,18.46
2023-08-02T23:03:20.501Z,18.40
2023-08-02T23:06:05.577Z,18.21
2023-08-02T23:08:50.528Z,18.11
2023-08-02T23:11:35.686Z,18.12
2023-08-02T23:14:20.878Z,18.14
2023-08-02T23:17:06.026Z,18.08
2023-08-02T23:19:51.175Z,18.02
2023-08-02T23:22:36.280Z,17.98
2023-08-02T23:25:21.241Z,17.93
2023-08-02T23:28:06.252Z,17.94
2023-08-02T23:30:51.379Z,17.92
2023-08-02T23:33:36.383Z,18.08
2023-08-02T23:36:21.608Z,18.16
2023-08-02T23:39:06.762Z,18.20
2023-08-02T23:41:52.037Z,18.17
2023-08-02T23:44:37.087Z,18.23
2023-08-02T23:47:22.089Z,18.26
2023-08-02T23:50:07.243Z,18.27
2023-08-02T23:52:52.285Z,18.35
2023-08-02T23:55:37.425Z,18.37
2023-08-02T23:58:22.488Z,18.44
